Terminal Aerodrome Forecast
Issued by NWS

Home | Current Version | Previous Version | Text Only | Print | Product List | Glossary On
Versions: 1 2 3 4 5 6 7 8 9 10 11 12 13 14 15 16 17 18 19 20 21 22 23 24 25 26 27
000
FTUS41 KBUF 171700
TAFIAG
TAF
KIAG 171737Z 1718/1818 24010KT P6SM SCT050
     FM172200 23007KT P6SM SCT150
     FM181100 00000KT P6SM BKN045
     FM181300 34008KT P6SM BKN020
     FM181700 04011KT P6SM BKN025=

USA.gov is the U.S. government's official web portal to all federal, state and local government web resources and services.